METAR stanice u blizini

 

LYBE - Beograd / Surčin, Srbija
Ažurirano: 06/07/2020 03:00
Vedro
Vedro
 Pravac vetra JZ
Vetar: JZ 7 km/h
Temperatura: 19°C
Tačka rose: 15°C
Vlažnost: 78%
Pritisak: 1013 hPa
Pregled: Vedro
Vidljivost: greater than 10 km
2020/07/06 01:00 LYBE 060100Z 22004KT CAVOK 19/15 Q1013 NOSIG
LYBT - Beograd / Batajnica, Srbija
Ažurirano: 06/07/2020 03:00
Vedro
Vedro
 Pravac vetra JJI
Vetar: JJI 2 km/h
Temperatura: 16°C
Tačka rose: 14°C
Vlažnost: 88%
Pritisak: 1012 hPa
Pregled: Vedro
Vidljivost: greater than 10 km
2020/07/06 01:00 LYBT 060100Z 16001KT CAVOK 16/14 Q1012 NOSIG
LYVR - Vršac, Srbija
Ažurirano: 06/07/2020 03:00

 Pravac vetra varies
Vetar: varies 2 km/h
Vidljivost: 9 km
2020/07/06 01:00 LYVR 060100Z AUTO VRB01KT 9000 4300 NSC 16/15 Q1012
 
LYKV - Lađevci, Srbija
Ažurirano: 06/07/2020 03:00
Vedro
Vedro
 Pravac vetra calm
Vetar: Tišina
Temperatura: 17°C
Tačka rose: 17°C
Vlažnost: 100%
Pritisak: 1013 hPa
Pregled: Vedro
Vidljivost: greater than 10 km
2020/07/06 01:00 LYKV 060100Z 00000KT CAVOK 17/17 Q1013 NOSIG
LYNI - Niš, Srbija
Ažurirano: 06/07/2020 03:00
Vedro
Vedro
 Pravac vetra varies
Vetar: varies 2 km/h
Temperatura: 19°C
Tačka rose: 16°C
Vlažnost: 83%
Pritisak: 1012 hPa
Pregled: Vedro
Vidljivost: greater than 10 km
2020/07/06 01:00 LYNI 060100Z VRB01KT CAVOK 19/16 Q1012 NOSIG
BKPR - Priština, Srbija
Ažurirano: 06/07/2020 03:00
Partly Cloudy
Partly Cloudy
 Pravac vetra SZ
Vetar: SZ 7 km/h
Temperatura: 18°C
Tačka rose: 14°C
Vlažnost: 78%
Pritisak: 1013 hPa
Oblaci: Partly Cloudy
Vidljivost: 10 km
Cloud details: Partly Cloudy 2438 m
2020/07/06 01:00 BKPR 060100Z 31004KT 9999 SCT080 18/14 Q1013 NOSIG
 
LHPP - Pecs / Pogany, Hungary
Ažurirano: 05/07/2020 19:45
NOT Current
Vedro
Vedro
 Pravac vetra S
Vetar: S 6 km/h
Temperatura: 28°C
Heat Index: 28°C
Tačka rose: 14°C
Vlažnost: 42%
Pritisak: 1014 hPa
Pregled: Vedro
Vidljivost: greater than 10 km
2020/07/05 17:45 LHPP 051745Z 35003KT CAVOK 28/14 Q1014
LHUD - Szeged, Hungary
Ažurirano: 04/07/2019 01:45
NOT Current
Vedro
Vedro
 Pravac vetra S
Vetar: S 7 km/h
Temperatura: 18°C
Tačka rose: 13°C
Vlažnost: 73%
Pritisak: 1019 hPa
Pregled: Vedro
Vidljivost: greater than 10 km
2019/07/03 23:45 LHUD 032345Z 35004KT CAVOK 18/13 Q1019
LRTR - Timisoara, Romania
Ažurirano: 06/07/2020 03:00
Vedro
Vedro
 Pravac vetra ISI
Vetar: ISI 7 km/h
Temperatura: 16°C
Tačka rose: 16°C
Vlažnost: 100%
Pritisak: 1012 hPa
Pregled: Vedro
Vidljivost: greater than 10 km
2020/07/06 01:00 LRTR 060100Z 07004KT CAVOK 16/16 Q1012
 
LRCV - Craiova, Romania
Ažurirano: 06/07/2020 03:00
Vedro
Vedro
 Pravac vetra ISI
Vetar: ISI 9 km/h
Temperatura: 20°C
Tačka rose: 18°C
Vlažnost: 88%
Pritisak: 1011 hPa
Pregled: Vedro
Vidljivost: greater than 10 km
2020/07/06 01:00 LRCV 060100Z 06005KT CAVOK 20/18 Q1011
LBSF - Sofia, Bulgaria
Ažurirano: 06/07/2020 03:00
Mostly Cloudy
Mostly Cloudy
 Pravac vetra varies
Vetar: varies 4 km/h
Temperatura: 17°C
Tačka rose: 16°C
Vlažnost: 94%
Pritisak: 1013 hPa
Oblaci: Mostly Cloudy
Vidljivost: 8 km
Cloud details: Partly Cloudy 1981 m
Mostly Cloudy 2560 m
2020/07/06 01:00 LBSF 060100Z VRB02KT 8000 SCT065 BKN084 17/16 Q1013 NOSIG
LWSK - Skoplje, Makedonija
Ažurirano: 06/07/2020 03:00
Mostly Cloudy
Mostly Cloudy
 Pravac vetra JI
Vetar: JI 4 km/h
Temperatura: 21°C
Tačka rose: 17°C
Vlažnost: 78%
Pritisak: 1011 hPa
Oblaci: Mostly Cloudy
Vidljivost: 10 km
Cloud details: Few Clouds 1219 m
Mostly Cloudy 2134 m
2020/07/06 01:00 LWSK 060100Z 13002KT 9999 FEW040 BKN070 21/17 Q1011 NOSIG
 
LYPG - Podgorica, Crna Gora
Ažurirano: 06/07/2020 03:00
Vedro
Vedro
 Pravac vetra S
Vetar: S 15 km/h
Temperatura: 26°C
Tačka rose: 13°C
Vlažnost: 45%
Pritisak: 1009 hPa
Pregled: Vedro
Vidljivost: greater than 10 km
2020/07/06 01:00 LYPG 060100Z 01008KT CAVOK 26/13 Q1009 NOSIG
LQSA - Sarajevo, Bosna i Hercegovina
Ažurirano: 05/07/2020 16:30
NOT Current
Mostly Cloudy
Mostly Cloudy
 Pravac vetra SSZ
Vetar: SSZ 11 km/h
Temperatura: 25°C
Tačka rose: 16°C
Vlažnost: 57%
Pritisak: 1016 hPa
Oblaci: Mostly Cloudy
Vidljivost: 10 km
Cloud details: Few Clouds 1219 m
Mostly Cloudy 1524 m
2020/07/05 14:30 LQSA 051430Z 34006KT 320V030 9999 FEW040TCU BKN050 25/16 Q1016 TEMPO SHRA
LDOS - Osijek, Hrvatksa
Ažurirano: 06/07/2020 03:00
Vedro
Vedro
 Pravac vetra Z
Vetar: Z 9 km/h
Temperatura: 15°C
Tačka rose: 14°C
Vlažnost: 94%
Pritisak: 1013 hPa
Pregled: Vedro
Vidljivost: greater than 10 km
2020/07/06 01:00 LDOS 060100Z 27005KT CAVOK 15/14 Q1013